Time;durP1;ratioP1;P1;durP2;ratioP2;P2;SDS_P1;SDS_P2;PMS_P1;PMS_P2;Temp;Humidity;BMP_temperature;BMP_pressure;BME280_temperature;BME280_humidity;BME280_pressure;Samples;Min_cycle;Max_cycle;Signal;HPM_P1;HPM_P2
2024/03/06 00:02:06;;;;;;;0.70;0.70;;;;;;;3.17;100.00;91993.84;4747347;30;20143;-81
2024/03/06 00:04:31;;;;;;;0.70;0.70;;;;;;;3.29;100.00;91991.81;4751113;30;20024;-84
2024/03/06 00:06:59;;;;;;;0.80;0.80;;;;;;;3.18;100.00;91985.84;4748686;30;20059;-82
2024/03/06 00:09:28;;;;;;;0.70;0.70;;;;;;;3.31;100.00;91994.91;4748526;30;20045;-82
2024/03/06 00:11:55;;;;;;;0.68;0.68;;;;;;;3.27;100.00;91999.84;4748949;30;20047;-79
2024/03/06 00:14:22;;;;;;;0.70;0.70;;;;;;;3.51;100.00;92000.19;4746401;30;20036;-83
2024/03/06 00:16:52;;;;;;;0.80;0.80;;;;;;;3.37;100.00;91995.72;4745356;30;20048;-83
2024/03/06 00:19:19;;;;;;;0.65;0.65;;;;;;;3.40;100.00;91992.63;4744061;30;20044;-83
2024/03/06 00:21:45;;;;;;;0.70;0.70;;;;;;;3.38;100.00;91981.75;4745389;30;20237;-81
2024/03/06 00:24:14;;;;;;;0.70;0.70;;;;;;;3.34;100.00;92013.31;4744397;30;20055;-81
2024/03/06 00:26:49;;;;;;;1.00;0.75;;;;;;;3.39;100.00;91991.06;4743185;30;20036;-80
2024/03/06 00:29:15;;;;;;;0.80;0.80;;;;;;;3.34;100.00;92000.38;4754160;30;20559;-80
2024/03/06 00:31:45;;;;;;;0.80;0.80;;;;;;;3.34;100.00;91999.59;4740721;30;20113;-83
2024/03/06 00:34:13;;;;;;;0.80;0.80;;;;;;;3.38;100.00;91990.31;4738801;30;20118;-82
2024/03/06 00:36:43;;;;;;;0.60;0.60;;;;;;;3.29;100.00;92008.13;4753192;30;20031;-83
2024/03/06 00:41:45;;;;;;;0.70;0.70;;;;;;;3.42;100.00;92004.28;4750940;30;20424;-81
2024/03/06 00:44:11;;;;;;;0.60;0.60;;;;;;;3.41;100.00;91984.63;4785270;24;20166;-82
2024/03/06 00:46:36;;;;;;;1.38;0.70;;;;;;;3.48;100.00;91997.31;4784551;24;20500;-83
2024/03/06 00:49:02;;;;;;;0.65;0.60;;;;;;;3.44;100.00;91993.66;4769303;30;20047;-81
2024/03/06 00:51:28;;;;;;;0.60;0.60;;;;;;;3.50;100.00;91997.84;4773550;30;20043;-81
2024/03/06 00:53:53;;;;;;;0.70;0.70;;;;;;;3.48;100.00;91990.31;4768921;30;20188;-83
2024/03/06 00:56:19;;;;;;;0.57;0.57;;;;;;;3.51;100.00;91971.72;4768010;30;20036;-81
2024/03/06 00:58:44;;;;;;;0.70;0.70;;;;;;;3.65;100.00;91982.34;4767177;30;20055;-82
2024/03/06 01:01:10;;;;;;;0.85;0.85;;;;;;;3.54;100.00;91983.38;4766747;30;20530;-83
2024/03/06 01:04:08;;;;;;;0.77;0.77;;;;;;;3.60;100.00;92010.78;4790210;24;20108;-83
2024/03/06 01:06:33;;;;;;;0.88;0.60;;;;;;;3.72;100.00;92002.81;4731829;30;20057;-83
2024/03/06 01:08:59;;;;;;;0.70;0.70;;;;;;;3.81;100.00;92008.28;4734947;30;20074;-83
2024/03/06 01:11:26;;;;;;;0.60;0.60;;;;;;;3.80;100.00;92009.31;4719737;30;20040;-81
2024/03/06 01:13:52;;;;;;;1.02;0.65;;;;;;;3.73;100.00;92012.13;4736819;24;20387;-82
2024/03/06 01:16:18;;;;;;;0.80;0.80;;;;;;;3.72;100.00;92015.78;4763852;24;20408;-79
2024/03/06 01:18:44;;;;;;;0.70;0.70;;;;;;;3.62;100.00;92018.31;4775586;24;20055;-81
2024/03/06 01:21:16;;;;;;;1.15;0.65;;;;;;;3.70;100.00;92028.19;4761164;29;20074;-82
2024/03/06 01:24:14;;;;;;;0.63;0.63;;;;;;;3.62;100.00;92023.50;4749440;30;20121;-80
2024/03/06 01:26:42;;;;;;;0.60;0.60;;;;;;;3.58;100.00;92010.31;4750631;24;20063;-81
2024/03/06 01:29:08;;;;;;;0.70;0.70;;;;;;;3.52;100.00;92001.72;4759983;24;20150;-83
2024/03/06 01:32:05;;;;;;;0.80;0.80;;;;;;;3.42;100.00;92006.09;4818932;24;20087;-80
2024/03/06 01:34:31;;;;;;;0.60;0.60;;;;;;;3.35;100.00;92027.00;4746602;24;20059;-79
2024/03/06 01:36:57;;;;;;;0.82;0.80;;;;;;;3.48;100.00;92016.19;4776235;24;20070;-79
2024/03/06 01:39:22;;;;;;;0.63;0.63;;;;;;;3.46;100.00;92023.44;4762757;24;20531;-79
2024/03/06 01:41:49;;;;;;;0.70;0.70;;;;;;;3.40;100.00;92016.72;4757634;30;20052;-79
2024/03/06 01:44:16;;;;;;;0.70;0.70;;;;;;;3.40;100.00;92003.78;4740141;30;20045;-82
2024/03/06 01:46:43;;;;;;;0.80;0.80;;;;;;;3.34;100.00;92007.38;4808799;24;20059;-73
2024/03/06 01:49:09;;;;;;;0.70;0.70;;;;;;;3.35;100.00;92014.09;4770220;24;20096;-80
2024/03/06 01:51:35;;;;;;;0.60;0.60;;;;;;;3.30;100.00;92008.91;4751786;30;20052;-80
2024/03/06 01:54:03;;;;;;;0.70;0.70;;;;;;;3.22;100.00;92005.00;4737695;30;20048;-80
2024/03/06 01:56:32;;;;;;;0.70;0.70;;;;;;;3.23;100.00;91993.59;4742329;30;20046;-81
2024/03/06 01:58:58;;;;;;;0.90;0.90;;;;;;;3.24;100.00;91984.03;4740485;30;20043;-81
2024/03/06 02:01:23;;;;;;;0.60;0.60;;;;;;;3.27;100.00;91988.72;4870712;24;20056;-80
2024/03/06 02:03:50;;;;;;;0.80;0.80;;;;;;;3.29;100.00;91966.72;4768776;30;20047;-81
2024/03/06 02:06:20;;;;;;;0.90;0.82;;;;;;;3.28;100.00;91974.72;4779788;24;20060;-77
2024/03/06 02:08:46;;;;;;;1.13;1.02;;;;;;;3.20;100.00;91982.97;4770508;24;20213;-81
2024/03/06 02:11:13;;;;;;;0.80;0.80;;;;;;;3.34;100.00;91973.72;4753027;30;20416;-82
2024/03/06 02:13:42;;;;;;;0.60;0.60;;;;;;;3.37;100.00;91980.97;4775598;24;20225;-76
2024/03/06 02:16:08;;;;;;;1.00;0.80;;;;;;;3.24;100.00;91973.69;4786822;24;20064;-78
2024/03/06 02:18:33;;;;;;;1.00;1.00;;;;;;;3.28;100.00;91983.28;4764769;24;20056;-75
2024/03/06 02:20:59;;;;;;;0.93;0.80;;;;;;;3.26;100.00;91981.97;4767267;30;20047;-73
2024/03/06 02:23:24;;;;;;;0.60;0.60;;;;;;;3.29;100.00;91984.06;4767089;30;20078;-74
2024/03/06 02:25:50;;;;;;;0.90;0.90;;;;;;;3.52;100.00;91983.63;4751198;30;20453;-74
2024/03/06 02:28:16;;;;;;;1.10;0.90;;;;;;;3.34;100.00;91984.84;4767214;30;20571;-74
2024/03/06 02:30:43;;;;;;;0.70;0.70;;;;;;;3.28;100.00;91982.50;4766007;30;20111;-74
2024/03/06 02:33:11;;;;;;;0.90;0.90;;;;;;;3.32;100.00;91981.72;4765675;30;20043;-74
2024/03/06 02:35:38;;;;;;;0.80;0.80;;;;;;;3.46;100.00;91968.31;4765341;30;20032;-74
2024/03/06 02:38:07;;;;;;;1.05;0.90;;;;;;;3.24;100.00;91982.25;4765271;30;20059;-75
2024/03/06 02:40:33;;;;;;;0.77;0.77;;;;;;;3.11;100.00;91980.88;4765375;30;20182;-74
2024/03/06 02:42:59;;;;;;;0.65;0.65;;;;;;;3.19;100.00;91978.84;4765031;30;20470;-75
2024/03/06 02:45:24;;;;;;;0.75;0.75;;;;;;;3.11;100.00;91982.69;4763709;30;20024;-74
2024/03/06 02:47:50;;;;;;;0.98;0.98;;;;;;;3.22;100.00;91976.53;4764840;30;20415;-74
2024/03/06 02:50:16;;;;;;;0.70;0.70;;;;;;;3.22;100.00;91983.50;4765039;30;20088;-74
2024/03/06 02:52:41;;;;;;;0.93;0.85;;;;;;;3.20;100.00;91982.97;4765022;30;20168;-74
2024/03/06 02:55:07;;;;;;;0.60;0.60;;;;;;;3.22;100.00;91981.72;4763782;30;20566;-74
2024/03/06 02:57:33;;;;;;;0.80;0.80;;;;;;;3.27;100.00;91984.31;4765038;30;20738;-74
2024/03/06 02:59:59;;;;;;;0.80;0.80;;;;;;;3.27;100.00;91978.38;4763612;30;20381;-74
2024/03/06 03:02:25;;;;;;;0.60;0.60;;;;;;;3.36;100.00;91982.03;4771731;30;20039;-74
2024/03/06 03:04:52;;;;;;;0.70;0.70;;;;;;;3.47;100.00;91980.25;4784412;29;20031;-74
2024/03/06 03:07:21;;;;;;;0.60;0.60;;;;;;;3.45;100.00;91979.72;4784310;29;20067;-74
2024/03/06 03:09:47;;;;;;;0.80;0.80;;;;;;;3.55;100.00;91985.69;4784574;29;20039;-74
2024/03/06 03:12:13;;;;;;;1.90;0.80;;;;;;;3.54;100.00;91978.97;4784344;30;20394;-76
2024/03/06 03:14:42;;;;;;;1.52;1.17;;;;;;;3.82;100.00;91969.19;4784872;29;20128;-74
2024/03/06 03:17:08;;;;;;;0.90;0.82;;;;;;;3.78;100.00;91960.34;4781291;29;20070;-74
2024/03/06 03:19:34;;;;;;;0.70;0.70;;;;;;;3.89;100.00;91959.34;4750257;30;20086;-74
2024/03/06 03:22:00;;;;;;;0.80;0.80;;;;;;;3.84;100.00;91956.75;4765057;30;20062;-74
2024/03/06 03:24:26;;;;;;;0.70;0.70;;;;;;;3.79;100.00;91948.22;4766293;30;20110;-74
2024/03/06 03:26:52;;;;;;;0.60;0.60;;;;;;;3.71;100.00;91968.38;4765940;30;20097;-73
2024/03/06 03:29:18;;;;;;;0.88;0.68;;;;;;;3.90;100.00;91940.19;4764255;30;20035;-74
2024/03/06 03:31:44;;;;;;;0.70;0.70;;;;;;;3.84;100.00;91959.34;4766120;30;20478;-74
2024/03/06 03:34:10;;;;;;;0.63;0.63;;;;;;;4.20;100.00;91954.19;4766140;30;20032;-74
2024/03/06 03:36:44;;;;;;;0.55;0.55;;;;;;;4.25;100.00;91956.75;4766277;30;20055;-76
2024/03/06 03:39:17;;;;;;;0.63;0.63;;;;;;;4.24;100.00;91968.19;4764549;30;20052;-74
2024/03/06 03:41:47;;;;;;;0.90;0.85;;;;;;;3.89;100.00;91974.88;4765501;30;20869;-73
2024/03/06 03:44:14;;;;;;;0.90;0.70;;;;;;;3.99;100.00;91973.34;4765345;30;20032;-74
2024/03/06 03:46:39;;;;;;;0.80;0.80;;;;;;;3.84;100.00;91979.28;4765504;30;20454;-74
2024/03/06 03:49:05;;;;;;;2.70;0.80;;;;;;;3.85;100.00;91986.00;4764005;30;20035;-76
2024/03/06 03:51:30;;;;;;;2.55;0.80;;;;;;;3.73;100.00;91987.03;4765290;30;20039;-74
2024/03/06 03:53:56;;;;;;;0.85;0.80;;;;;;;3.59;100.00;91992.97;4764005;30;20116;-74
2024/03/06 03:56:21;;;;;;;0.70;0.70;;;;;;;3.64;100.00;91988.56;4766253;30;20370;-74
2024/03/06 03:58:47;;;;;;;1.05;0.90;;;;;;;3.66;100.00;91986.50;4765737;30;20056;-73
2024/03/06 04:01:13;;;;;;;1.75;1.00;;;;;;;3.66;100.00;92001.25;4765425;30;20039;-74
2024/03/06 04:03:40;;;;;;;0.70;0.70;;;;;;;3.75;100.00;92002.31;4764883;30;20054;-74
2024/03/06 04:06:06;;;;;;;0.88;0.80;;;;;;;3.62;100.00;92005.38;4764994;30;20081;-74
2024/03/06 04:08:31;;;;;;;1.48;1.00;;;;;;;3.55;100.00;91996.03;4764940;30;20527;-73
2024/03/06 04:10:57;;;;;;;0.68;0.68;;;;;;;3.78;100.00;91995.84;4765033;30;20047;-74
2024/03/06 04:13:22;;;;;;;0.70;0.70;;;;;;;3.83;100.00;92001.81;4764456;30;20431;-74
2024/03/06 04:15:48;;;;;;;0.60;0.60;;;;;;;3.73;100.00;91991.44;4764937;30;20489;-74
2024/03/06 04:18:14;;;;;;;0.52;0.52;;;;;;;3.76;100.00;91967.63;4763962;30;20071;-74
2024/03/06 04:20:39;;;;;;;0.60;0.60;;;;;;;3.76;100.00;91975.41;4765319;30;20050;-74
2024/03/06 04:23:05;;;;;;;0.70;0.70;;;;;;;3.75;100.00;91984.19;4763657;30;20032;-74
2024/03/06 04:25:31;;;;;;;0.63;0.63;;;;;;;3.84;100.00;91976.69;4764689;30;20067;-74
2024/03/06 04:27:56;;;;;;;0.60;0.60;;;;;;;3.80;100.00;91986.00;4764672;30;20044;-74
2024/03/06 04:30:22;;;;;;;0.60;0.60;;;;;;;3.88;100.00;91998.47;4764655;30;20047;-74
2024/03/06 04:32:47;;;;;;;0.88;0.70;;;;;;;3.93;100.00;91991.47;4765622;30;20101;-74
2024/03/06 04:35:13;;;;;;;0.70;0.70;;;;;;;3.94;100.00;92003.38;4763416;30;20046;-74
2024/03/06 04:37:39;;;;;;;0.70;0.70;;;;;;;4.00;100.00;92011.94;4748857;30;20040;-75
2024/03/06 04:40:08;;;;;;;0.68;0.68;;;;;;;4.27;100.00;92003.91;4764346;30;20583;-73
2024/03/06 04:42:35;;;;;;;0.75;0.70;;;;;;;4.29;100.00;92004.44;4764852;30;20479;-73
2024/03/06 04:45:12;;;;;;;0.70;0.70;;;;;;;4.01;100.00;92017.88;4763464;30;20032;-74
2024/03/06 04:47:37;;;;;;;0.77;0.77;;;;;;;3.88;100.00;92030.31;4764304;30;20051;-74
2024/03/06 04:50:03;;;;;;;0.70;0.70;;;;;;;3.78;100.00;92032.09;4763356;30;20052;-74
2024/03/06 04:52:29;;;;;;;0.70;0.70;;;;;;;3.71;100.00;92024.56;4764326;30;20067;-74
2024/03/06 04:54:54;;;;;;;0.80;0.80;;;;;;;3.68;100.00;92020.66;4763988;30;20523;-74
2024/03/06 04:57:20;;;;;;;0.70;0.70;;;;;;;3.80;100.00;92032.59;4764377;30;20060;-76
2024/03/06 04:59:45;;;;;;;0.75;0.75;;;;;;;3.75;100.00;92035.97;4764313;30;20048;-74
2024/03/06 05:02:11;;;;;;;1.25;0.77;;;;;;;3.95;100.00;92041.19;4763423;30;20047;-76
2024/03/06 05:04:36;;;;;;;0.70;0.70;;;;;;;3.69;100.00;92036.97;4764457;30;20169;-76
2024/03/06 05:07:02;;;;;;;0.82;0.82;;;;;;;3.62;100.00;92036.44;4762770;30;20067;-74
2024/03/06 05:09:28;;;;;;;0.77;0.75;;;;;;;3.59;100.00;92036.97;4763963;30;20235;-74
2024/03/06 05:11:53;;;;;;;0.93;0.80;;;;;;;3.52;100.00;92044.94;4763340;30;20048;-74
2024/03/06 05:14:19;;;;;;;0.98;0.75;;;;;;;3.53;100.00;92038.72;4763788;30;20036;-73
2024/03/06 05:16:44;;;;;;;0.60;0.60;;;;;;;3.44;100.00;92043.63;4762982;30;20047;-76
2024/03/06 05:19:10;;;;;;;0.88;0.85;;;;;;;3.37;100.00;92045.66;4763991;30;20064;-76
2024/03/06 05:21:36;;;;;;;0.80;0.80;;;;;;;3.34;100.00;92061.69;4764307;30;20427;-74
2024/03/06 05:24:02;;;;;;;0.70;0.70;;;;;;;3.42;100.00;92068.97;4764109;30;20046;-73
2024/03/06 05:26:28;;;;;;;0.80;0.80;;;;;;;3.58;100.00;92076.78;4748166;30;20127;-76
2024/03/06 05:28:53;;;;;;;0.80;0.70;;;;;;;3.36;100.00;92082.94;4767733;30;20035;-76
2024/03/06 05:31:20;;;;;;;0.60;0.60;;;;;;;3.41;100.00;92077.75;4764111;29;20051;-76
2024/03/06 05:33:49;;;;;;;0.70;0.70;;;;;;;3.18;100.00;92088.53;4762233;30;20046;-75
2024/03/06 05:36:15;;;;;;;0.80;0.80;;;;;;;2.95;100.00;92105.16;4745893;30;20453;-75
2024/03/06 05:38:41;;;;;;;2.60;1.60;;;;;;;2.81;100.00;92109.97;4745584;30;20082;-76
2024/03/06 05:41:08;;;;;;;1.75;0.95;;;;;;;2.77;100.00;92106.31;4756023;30;20040;-77
2024/03/06 05:43:34;;;;;;;0.60;0.60;;;;;;;2.63;100.00;92114.50;4766876;30;20173;-74
2024/03/06 05:46:00;;;;;;;0.85;0.85;;;;;;;2.57;100.00;92125.84;4761650;30;20130;-76
2024/03/06 05:48:26;;;;;;;3.95;0.85;;;;;;;2.44;100.00;92131.41;4746183;30;20067;-73
2024/03/06 05:50:53;;;;;;;0.80;0.80;;;;;;;2.41;100.00;92132.66;4746554;30;20726;-74
2024/03/06 05:53:19;;;;;;;0.70;0.70;;;;;;;2.37;100.00;92135.97;4749448;30;20126;-74
2024/03/06 05:55:45;;;;;;;0.80;0.80;;;;;;;2.40;100.00;92138.06;4759044;30;20565;-74
2024/03/06 05:58:16;;;;;;;1.00;0.90;;;;;;;2.38;100.00;92134.94;4761770;30;20044;-75
2024/03/06 06:00:42;;;;;;;0.90;0.90;;;;;;;2.38;100.00;92140.88;4770827;29;20574;-74
2024/03/06 06:03:11;;;;;;;0.70;0.70;;;;;;;2.46;100.00;92143.03;4762108;30;20067;-75
2024/03/06 06:05:38;;;;;;;0.80;0.80;;;;;;;2.52;100.00;92146.44;4765845;30;20031;-75
2024/03/06 06:08:05;;;;;;;1.10;0.90;;;;;;;2.61;100.00;92157.91;4777363;30;20553;-75
2024/03/06 06:10:30;;;;;;;0.95;0.80;;;;;;;2.49;100.00;92167.59;4763536;30;20044;-78
2024/03/06 06:12:56;;;;;;;0.88;0.80;;;;;;;2.45;100.00;92163.94;4781808;29;20521;-76
2024/03/06 06:15:22;;;;;;;0.80;0.80;;;;;;;2.44;100.00;92157.22;4765241;30;20047;-76
2024/03/06 06:17:48;;;;;;;1.90;1.10;;;;;;;2.38;100.00;92161.56;4767094;30;20052;-76
2024/03/06 06:20:14;;;;;;;0.80;0.80;;;;;;;2.54;100.00;92167.66;4766951;30;20048;-76
2024/03/06 06:22:41;;;;;;;0.80;0.80;;;;;;;2.49;100.00;92165.03;4771768;30;20077;-76
2024/03/06 06:25:07;;;;;;;2.10;0.70;;;;;;;2.47;100.00;92159.31;4771096;30;20077;-76
2024/03/06 06:27:33;;;;;;;0.70;0.70;;;;;;;2.71;100.00;92163.16;4770073;29;20052;-75
2024/03/06 06:29:59;;;;;;;1.48;0.90;;;;;;;2.73;100.00;92159.56;4780614;30;20050;-75
2024/03/06 06:32:24;;;;;;;0.70;0.70;;;;;;;2.59;100.00;92165.13;4765491;30;20048;-75
2024/03/06 06:34:50;;;;;;;1.10;1.00;;;;;;;2.52;100.00;92171.50;4765944;30;20374;-74
2024/03/06 06:37:16;;;;;;;0.93;0.90;;;;;;;2.74;100.00;92177.41;4765241;30;20536;-75
2024/03/06 06:39:41;;;;;;;0.80;0.80;;;;;;;2.82;100.00;92178.78;4766227;30;20134;-75
2024/03/06 06:42:08;;;;;;;1.35;0.80;;;;;;;2.78;100.00;92183.63;4765980;30;20051;-74
2024/03/06 06:44:34;;;;;;;0.70;0.70;;;;;;;2.94;100.00;92179.38;4766293;30;20489;-73
2024/03/06 06:46:59;;;;;;;0.70;0.70;;;;;;;2.84;100.00;92192.22;4766736;30;20052;-74
2024/03/06 06:49:25;;;;;;;0.88;0.88;;;;;;;2.70;100.00;92195.22;4766843;30;20052;-74
2024/03/06 06:51:50;;;;;;;0.75;0.75;;;;;;;2.73;100.00;92190.59;4765866;30;20055;-74
2024/03/06 06:54:16;;;;;;;0.80;0.70;;;;;;;2.68;100.00;92189.50;4766102;30;20061;-74
2024/03/06 06:56:42;;;;;;;0.70;0.70;;;;;;;2.66;100.00;92188.97;4764921;30;20524;-74
2024/03/06 06:59:08;;;;;;;0.90;0.82;;;;;;;2.76;100.00;92174.56;4765905;30;20047;-74
2024/03/06 07:01:33;;;;;;;0.98;0.90;;;;;;;2.88;100.00;92173.41;4766438;30;20310;-73
2024/03/06 07:03:59;;;;;;;1.25;1.05;;;;;;;3.10;100.00;92178.47;4765156;30;20027;-73
2024/03/06 07:06:25;;;;;;;0.98;0.85;;;;;;;4.09;100.00;92170.22;4765717;30;20066;-73
2024/03/06 07:08:50;;;;;;;0.95;0.90;;;;;;;4.67;100.00;92170.88;4765954;30;20047;-73
2024/03/06 07:11:20;;;;;;;0.80;0.80;;;;;;;5.12;100.00;92171.97;4766274;30;20034;-73
2024/03/06 07:13:45;;;;;;;1.40;0.90;;;;;;;5.10;100.00;92170.66;4766312;30;20513;-75
2024/03/06 07:16:11;;;;;;;0.90;0.90;;;;;;;5.39;100.00;92176.09;4765954;30;20043;-75
2024/03/06 07:18:37;;;;;;;1.48;1.00;;;;;;;6.10;100.00;92169.22;4764581;30;20059;-75
2024/03/06 07:21:02;;;;;;;1.58;1.17;;;;;;;6.34;100.00;92166.78;4775230;30;20791;-75
2024/03/06 07:23:28;;;;;;;1.13;1.00;;;;;;;6.98;100.00;92172.91;4767304;30;20188;-75
2024/03/06 07:25:53;;;;;;;0.60;0.60;;;;;;;6.82;100.00;92170.44;4783886;29;20058;-75
2024/03/06 07:28:20;;;;;;;0.80;0.80;;;;;;;6.56;100.00;92169.00;4783447;29;20031;-76
2024/03/06 07:30:47;;;;;;;1.42;1.00;;;;;;;6.41;100.00;92165.44;4784022;29;20044;-75
2024/03/06 07:33:13;;;;;;;1.30;0.82;;;;;;;6.28;100.00;92170.44;4784187;29;20039;-75
2024/03/06 07:35:39;;;;;;;1.20;0.95;;;;;;;6.13;100.00;92173.91;4783970;29;20066;-75
2024/03/06 07:38:05;;;;;;;1.65;1.05;;;;;;;5.92;100.00;92173.13;4783607;29;20043;-75
2024/03/06 07:40:34;;;;;;;1.38;1.00;;;;;;;5.78;100.00;92172.91;4783525;29;20724;-75
2024/03/06 07:42:59;;;;;;;2.55;1.45;;;;;;;5.69;100.00;92184.88;4783320;29;20122;-75
2024/03/06 07:45:26;;;;;;;1.85;1.02;;;;;;;5.53;100.00;92182.31;4783673;29;20157;-75
2024/03/06 07:47:52;;;;;;;1.15;0.90;;;;;;;5.50;100.00;92176.88;4783537;29;20092;-75
2024/03/06 07:50:20;;;;;;;1.10;0.85;;;;;;;5.54;100.00;92181.28;4781718;30;20093;-75
2024/03/06 07:52:46;;;;;;;0.77;0.77;;;;;;;5.51;100.00;92192.19;4782166;30;20124;-75
2024/03/06 07:55:12;;;;;;;0.57;0.57;;;;;;;5.47;100.00;92188.56;4783942;29;20153;-75
2024/03/06 07:57:38;;;;;;;0.50;0.50;;;;;;;5.48;100.00;92192.72;4783659;29;20164;-75
2024/03/06 08:00:14;;;;;;;0.60;0.60;;;;;;;5.51;100.00;92194.78;4783410;29;20108;-75
2024/03/06 08:02:43;;;;;;;0.52;0.52;;;;;;;5.55;100.00;92195.03;4783287;29;20043;-75
2024/03/06 08:05:12;;;;;;;0.50;0.50;;;;;;;5.63;100.00;92191.91;4782967;29;20574;-75
2024/03/06 08:07:44;;;;;;;0.80;0.80;;;;;;;5.75;100.00;92202.78;4782902;29;20074;-75
2024/03/06 08:10:13;;;;;;;;;;;;;;;5.78;97.34;92207.47;4783368;29;20070;-75
2024/03/06 08:12:42;;;;;;;0.60;0.60;;;;;;;5.81;91.18;92209.53;4783182;29;20213;-75
2024/03/06 08:15:11;;;;;;;0.80;0.70;;;;;;;5.81;95.59;92208.78;4783028;29;20116;-75
2024/03/06 08:17:44;;;;;;;2.58;0.80;;;;;;;5.81;91.19;92208.78;4783239;29;20066;-75
2024/03/06 08:20:10;;;;;;;0.70;0.70;;;;;;;5.63;85.66;92217.88;4783170;29;20090;-74
2024/03/06 08:22:38;;;;;;;0.73;0.70;;;;;;;5.58;89.48;92216.09;4782803;29;20445;-75
2024/03/06 08:25:12;;;;;;;0.68;0.60;;;;;;;5.60;100.00;92223.59;4781485;30;20104;-75
2024/03/06 08:27:42;;;;;;;6.05;1.00;;;;;;;5.74;90.05;92216.84;4782661;29;20045;-75
2024/03/06 08:30:08;;;;;;;1.00;0.90;;;;;;;5.82;89.64;92215.50;4782795;29;20031;-75
2024/03/06 08:32:35;;;;;;;0.70;0.70;;;;;;;5.81;91.72;92230.31;4782316;29;20043;-75
2024/03/06 08:35:12;;;;;;;0.70;0.70;;;;;;;5.82;96.55;92233.69;4782573;29;20076;-75
2024/03/06 08:37:42;;;;;;;0.77;0.77;;;;;;;5.92;100.00;92231.09;4782719;29;20071;-74
2024/03/06 08:40:14;;;;;;;1.80;1.00;;;;;;;5.97;95.96;92236.31;4783068;30;20039;-75
2024/03/06 08:42:41;;;;;;;1.58;0.98;;;;;;;6.00;92.47;92243.56;4783016;29;20054;-75
2024/03/06 08:45:07;;;;;;;0.70;0.70;;;;;;;6.08;96.84;92246.66;4782652;29;20023;-75
2024/03/06 08:47:34;;;;;;;1.08;0.80;;;;;;;6.15;92.84;92236.78;4781043;30;20055;-75
2024/03/06 08:50:00;;;;;;;0.82;0.82;;;;;;;6.21;92.29;92254.69;4781060;30;20074;-74
2024/03/06 08:52:25;;;;;;;0.95;0.90;;;;;;;6.37;97.59;92239.03;4781958;29;20051;-75
2024/03/06 08:54:51;;;;;;;2.92;0.77;;;;;;;6.30;98.36;92249.72;4782426;29;20035;-75
2024/03/06 08:57:17;;;;;;;1.52;1.13;;;;;;;6.35;89.53;92244.50;4781052;30;20359;-75
2024/03/06 08:59:43;;;;;;;2.22;0.80;;;;;;;6.39;93.79;92245.50;4782565;29;20581;-75
2024/03/06 09:02:14;;;;;;;0.80;0.80;;;;;;;6.71;96.56;92252.19;4782935;29;20543;-74
2024/03/06 09:04:41;;;;;;;0.80;0.80;;;;;;;7.05;86.23;92246.28;4782679;29;20051;-75
2024/03/06 09:07:06;;;;;;;4.03;1.60;;;;;;;7.37;81.72;92251.00;4782152;29;20043;-75
2024/03/06 09:09:33;;;;;;;0.93;0.85;;;;;;;7.31;89.59;92252.06;4780504;30;20431;-75
2024/03/06 09:12:18;;;;;;;2.65;1.52;;;;;;;7.25;82.27;92261.75;4782253;30;20039;-75
2024/03/06 09:14:44;;;;;;;0.90;0.88;;;;;;;7.49;78.38;92263.66;4782323;29;20766;-75
2024/03/06 09:17:13;;;;;;;0.60;0.60;;;;;;;7.92;79.51;92258.63;4782199;29;20038;-75
2024/03/06 09:19:38;;;;;;;0.80;0.80;;;;;;;8.06;78.71;92261.34;4782097;29;20108;-75
2024/03/06 09:22:04;;;;;;;1.20;1.00;;;;;;;8.26;92.84;92263.00;4782436;29;20397;-74
2024/03/06 09:24:29;;;;;;;1.95;1.10;;;;;;;8.59;87.79;92265.81;4782536;30;20102;-75
2024/03/06 09:26:56;;;;;;;0.93;0.93;;;;;;;8.71;90.49;92271.41;4765590;30;20047;-76
2024/03/06 09:29:22;;;;;;;3.30;1.27;;;;;;;8.93;84.45;92269.03;4781713;29;20527;-75
2024/03/06 09:31:48;;;;;;;1.15;1.05;;;;;;;9.24;82.62;92280.94;4781499;29;20027;-75
2024/03/06 09:34:14;;;;;;;0.77;0.77;;;;;;;9.61;83.87;92272.28;4781957;29;20047;-75
2024/03/06 09:36:47;;;;;;;0.90;0.90;;;;;;;9.35;72.10;92267.44;4781795;29;20035;-75
2024/03/06 09:39:16;;;;;;;1.02;0.90;;;;;;;9.33;76.21;92285.22;4782268;29;20439;-75
2024/03/06 09:41:46;;;;;;;1.23;0.75;;;;;;;8.99;70.65;92280.19;4781667;29;20130;-74
2024/03/06 09:44:13;;;;;;;1.40;1.00;;;;;;;9.23;84.90;92284.59;4781701;29;20039;-75
2024/03/06 09:46:44;;;;;;;1.50;1.05;;;;;;;9.09;83.74;92290.50;4782487;29;20047;-75
2024/03/06 09:49:19;;;;;;;0.67;0.67;;;;;;;9.06;83.16;92285.84;4779288;29;20044;-75
2024/03/06 09:51:49;;;;;;;1.35;1.00;;;;;;;9.25;70.18;92291.06;4763737;30;20373;-74
2024/03/06 09:54:14;;;;;;;1.90;0.90;;;;;;;9.69;85.92;92287.31;4763611;30;20040;-75
2024/03/06 09:56:44;;;;;;;1.50;0.98;;;;;;;9.64;77.93;92284.78;4762778;30;20089;-75
2024/03/06 09:59:11;;;;;;;0.80;0.80;;;;;;;9.47;89.20;92287.13;4763570;30;20488;-75
2024/03/06 10:01:48;;;;;;;0.93;0.90;;;;;;;9.08;84.63;92293.41;4764014;30;20062;-75
2024/03/06 10:04:24;;;;;;;1.35;0.90;;;;;;;8.86;88.29;92297.31;4763641;30;20076;-74
2024/03/06 10:06:58;;;;;;;1.10;0.95;;;;;;;8.57;87.33;92299.22;4763734;30;20063;-75
2024/03/06 10:09:26;;;;;;;0.93;0.85;;;;;;;8.83;84.79;92305.72;4763870;30;20063;-75
2024/03/06 10:11:58;;;;;;;1.40;0.88;;;;;;;9.42;71.84;92292.44;4763705;30;20035;-75
2024/03/06 10:14:24;;;;;;;1.50;0.95;;;;;;;8.63;68.01;92301.50;4763306;30;20055;-74
2024/03/06 10:16:57;;;;;;;1.33;0.90;;;;;;;9.26;75.32;92299.72;4746117;30;20036;-74
2024/03/06 10:19:24;;;;;;;1.15;1.05;;;;;;;9.40;65.60;92294.56;4761836;30;20059;-75
2024/03/06 10:21:51;;;;;;;1.10;1.00;;;;;;;9.97;79.48;92287.41;4760652;30;20530;-74
2024/03/06 10:24:23;;;;;;;2.58;0.80;;;;;;;9.95;64.47;92303.41;4761868;30;20042;-74
2024/03/06 10:26:49;;;;;;;0.85;0.85;;;;;;;10.43;60.48;92302.38;4762016;30;20351;-74
2024/03/06 10:29:18;;;;;;;4.00;1.60;;;;;;;10.40;62.90;92305.53;4761935;30;20042;-74
2024/03/06 10:32:02;;;;;;;1.02;0.98;;;;;;;10.21;64.04;92280.19;4762461;30;20187;-74
2024/03/06 10:34:31;;;;;;;0.75;0.75;;;;;;;10.86;69.32;92302.09;4762026;30;20052;-74
2024/03/06 10:37:03;;;;;;;3.95;1.10;;;;;;;10.53;86.78;92299.53;4762753;30;20500;-74
2024/03/06 10:39:30;;;;;;;;;;;;;;;10.98;84.18;92304.97;4765849;30;20040;-75
2024/03/06 10:41:57;;;;;;;2.25;0.90;;;;;;;10.82;69.74;92311.59;4765158;30;20302;-74
2024/03/06 10:44:25;;;;;;;0.80;0.80;;;;;;;10.32;69.34;92308.84;4765318;30;20047;-74
2024/03/06 10:47:08;;;;;;;0.80;0.80;;;;;;;10.00;82.18;92307.78;4764269;30;20128;-74
2024/03/06 10:49:34;;;;;;;0.75;0.75;;;;;;;9.50;56.91;92305.66;4765882;30;20500;-74
2024/03/06 10:52:07;;;;;;;0.95;0.90;;;;;;;9.98;69.38;92309.88;4767322;30;20058;-74
2024/03/06 10:54:38;;;;;;;2.17;1.00;;;;;;;10.41;76.12;92334.03;4767131;30;20044;-75
2024/03/06 10:57:04;;;;;;;1.10;1.00;;;;;;;10.54;66.26;92311.59;4765271;30;20080;-74
2024/03/06 10:59:30;;;;;;;1.00;0.82;;;;;;;10.82;65.94;92322.06;4764394;30;20036;-75
2024/03/06 11:01:57;;;;;;;1.25;1.08;;;;;;;11.20;64.85;92329.72;4765177;30;20586;-74
2024/03/06 11:04:28;;;;;;;2.30;1.15;;;;;;;11.80;72.28;92319.00;4765952;30;20210;-74
2024/03/06 11:06:55;;;;;;;0.90;0.90;;;;;;;11.88;55.94;92320.16;4765940;30;20054;-75
2024/03/06 11:09:21;;;;;;;0.98;0.98;;;;;;;11.76;55.27;92325.13;4766400;30;20031;-75
2024/03/06 11:11:53;;;;;;;0.90;0.90;;;;;;;11.60;58.82;92322.06;4765772;30;20055;-75
2024/03/06 11:14:24;;;;;;;1.85;1.10;;;;;;;11.49;69.45;92312.88;4766507;30;20155;-74
2024/03/06 11:16:57;;;;;;;1.40;1.17;;;;;;;11.30;77.14;92315.63;4766981;30;20181;-75
2024/03/06 11:19:23;;;;;;;1.17;0.95;;;;;;;11.49;60.06;92324.13;4766186;30;20420;-75
2024/03/06 11:21:49;;;;;;;0.82;0.75;;;;;;;11.96;48.75;92327.31;4766801;30;20039;-75
2024/03/06 11:24:19;;;;;;;0.90;0.90;;;;;;;11.65;54.72;92321.94;4766313;30;20039;-75
2024/03/06 11:26:47;;;;;;;0.77;0.77;;;;;;;12.27;56.89;92327.38;4765732;30;20120;-75
2024/03/06 11:29:20;;;;;;;0.80;0.75;;;;;;;12.14;46.82;92320.34;4766093;30;20032;-74
2024/03/06 11:32:09;;;;;;;0.80;0.80;;;;;;;11.95;57.85;92314.50;4765818;30;20186;-74
2024/03/06 11:34:35;;;;;;;0.82;0.82;;;;;;;12.13;45.13;92325.88;4766033;30;20104;-74
2024/03/06 11:37:07;;;;;;;0.70;0.70;;;;;;;12.11;50.26;92312.28;4766147;30;20123;-74
2024/03/06 11:39:37;;;;;;;0.80;0.70;;;;;;;12.44;47.89;92308.31;4766580;30;20578;-74
2024/03/06 11:42:08;;;;;;;0.60;0.60;;;;;;;12.63;44.76;92309.94;4766255;30;20081;-75